Elko, Canada
Current Conditions -  °F | °C
As of 11:00 AM on Monday 26 Jan 2015 (Local Time) from CYXC Reporting Station
Broken Clouds Broken Clouds  
Wind Chill: 37°   Ceiling: 25000
Heat Index: 37°   Visibility: 25mi
Dew Point: 32°   Wind: 2mph
Humidity: 81%   Direction: 240°WSW
Pressure: 30.05"   Gusts: NA
Location:  49.3°N, 115.12°W
Report Text: CYXC 261800Z 24002KT 25SM FEW130 BKN250 03/M00 A3005 RMK AC1CI6 SLP201
Loading
Personal Weather Stations






























Interactive Weather Map New forecast layout! Learn more

10-Day Weather Forecast

Advertisements
Track Severe Weather on mobile